Time;durP1;ratioP1;P1;durP2;ratioP2;P2;SDS_P1;SDS_P2;PMS_P1;PMS_P2;Temp;Humidity;BMP_temperature;BMP_pressure;BME280_temperature;BME280_humidity;BME280_pressure;Samples;Min_cycle;Max_cycle;Signal;HPM_P1;HPM_P2
2023/03/01 00:00:40;;;;;;;47.47;24.80;;;-4.60;91.90;;;;;;5041255;28;20322;-65
2023/03/01 00:03:06;;;;;;;44.28;24.33;;;-4.70;91.70;;;;;;5035017;28;20029;-65
2023/03/01 00:05:31;;;;;;;40.08;22.30;;;-4.70;90.80;;;;;;5025108;28;20115;-65
2023/03/01 00:07:57;;;;;;;42.75;23.33;;;-4.60;89.80;;;;;;5034314;28;20471;-64
2023/03/01 00:10:26;;;;;;;45.58;24.10;;;-4.60;90.20;;;;;;5029165;28;20026;-64
2023/03/01 00:12:52;;;;;;;43.20;24.95;;;-4.60;90.00;;;;;;5025110;28;20037;-64
2023/03/01 00:15:20;;;;;;;38.03;22.55;;;-4.60;90.40;;;;;;5035005;28;20028;-64
2023/03/01 00:17:48;;;;;;;49.13;25.65;;;-4.60;89.20;;;;;;5021312;28;20113;-64
2023/03/01 00:20:14;;;;;;;39.85;22.77;;;-4.60;89.90;;;;;;5031460;28;20021;-64
2023/03/01 00:22:40;;;;;;;45.88;24.35;;;-4.60;88.70;;;;;;5035402;28;20329;-64
2023/03/01 00:25:05;;;;;;;46.00;25.23;;;-4.60;89.70;;;;;;5027302;28;20039;-66
2023/03/01 00:27:31;;;;;;;39.13;22.98;;;-4.60;90.20;;;;;;5036133;28;20112;-66
2023/03/01 00:30:02;;;;;;;46.05;25.15;;;-4.60;88.50;;;;;;5046309;28;20021;-66
2023/03/01 00:32:28;;;;;;;40.70;22.98;;;-4.60;89.30;;;;;;5046121;28;20030;-65
2023/03/01 00:34:56;;;;;;;44.00;24.33;;;-4.60;89.20;;;;;;5052467;28;20029;-65
2023/03/01 00:37:25;;;;;;;45.63;25.33;;;-4.60;90.30;;;;;;5034698;28;20052;-65
2023/03/01 00:39:50;;;;;;;44.88;24.67;;;-4.70;90.00;;;;;;5025009;28;20636;-64
2023/03/01 00:42:16;;;;;;;42.70;24.77;;;-4.70;90.00;;;;;;5032411;28;20104;-65
2023/03/01 00:44:42;;;;;;;44.20;23.70;;;-4.80;89.70;;;;;;5016910;28;20029;-64
2023/03/01 00:47:11;;;;;;;44.92;26.70;;;-4.90;89.60;;;;;;5044549;28;20025;-64
2023/03/01 00:49:36;;;;;;;43.05;23.50;;;-4.90;89.00;;;;;;5035565;28;20414;-64
2023/03/01 00:52:02;;;;;;;51.20;28.58;;;-5.00;88.30;;;;;;5033107;28;20728;-65
2023/03/01 00:54:27;;;;;;;47.50;25.55;;;-5.10;89.00;;;;;;5049444;28;20101;-64
2023/03/01 00:56:56;;;;;;;51.03;28.45;;;-5.10;87.50;;;;;;5045059;28;20053;-64
2023/03/01 00:59:21;;;;;;;50.72;26.73;;;-4.90;88.00;;;;;;5034128;28;20053;-64
2023/03/01 01:01:50;;;;;;;43.47;24.13;;;-5.00;88.70;;;;;;5041827;28;20100;-63
2023/03/01 01:04:15;;;;;;;47.50;26.38;;;-5.00;88.10;;;;;;5032395;28;20057;-64
2023/03/01 01:06:44;;;;;;;48.15;26.48;;;-5.00;88.40;;;;;;5048478;28;20340;-64
2023/03/01 01:09:16;;;;;;;43.80;24.42;;;-5.10;89.30;;;;;;5037997;28;20417;-64
2023/03/01 01:11:46;;;;;;;52.03;27.63;;;-5.10;87.70;;;;;;5049166;28;20426;-64
2023/03/01 01:14:12;;;;;;;45.78;24.23;;;-4.90;88.50;;;;;;5049166;28;20360;-64
2023/03/01 01:16:38;;;;;;;50.17;27.23;;;-5.00;89.10;;;;;;5029378;28;20188;-64
2023/03/01 01:19:03;;;;;;;50.10;28.02;;;-5.10;89.30;;;;;;5016682;28;20026;-64
2023/03/01 01:21:29;;;;;;;49.53;27.63;;;-5.10;88.10;;;;;;5028999;28;20107;-65
2023/03/01 01:23:55;;;;;;;46.30;26.65;;;-5.00;88.20;;;;;;5029567;28;20027;-64
2023/03/01 01:26:25;;;;;;;53.63;28.83;;;-5.00;88.40;;;;;;5038258;28;20108;-64
2023/03/01 01:28:51;;;;;;;54.47;28.17;;;-5.00;87.70;;;;;;5035899;28;20031;-64
2023/03/01 01:31:17;;;;;;;48.35;26.05;;;-4.90;86.70;;;;;;5032816;28;20040;-64
2023/03/01 01:33:44;;;;;;;46.47;26.15;;;-4.80;86.60;;;;;;5040568;28;20415;-64
2023/03/01 01:36:10;;;;;;;51.28;26.45;;;-4.70;86.80;;;;;;5019975;28;20174;-64
2023/03/01 01:38:37;;;;;;;52.67;27.70;;;-4.60;86.10;;;;;;5016524;28;20518;-64
2023/03/01 01:41:03;;;;;;;46.20;25.80;;;-4.40;85.90;;;;;;5018836;28;20026;-64
2023/03/01 01:43:44;;;;;;;46.92;25.90;;;-4.30;86.10;;;;;;5022430;28;20371;-64
2023/03/01 01:46:30;;;;;;;51.30;28.15;;;-4.20;85.60;;;;;;5019365;28;20418;-64
2023/03/01 01:49:09;;;;;;;44.75;24.10;;;-4.00;86.40;;;;;;5025394;28;20100;-64
2023/03/01 01:51:43;;;;;;;45.30;25.48;;;-3.90;86.90;;;;;;5025678;28;20053;-64
2023/03/01 01:54:14;;;;;;;43.03;25.40;;;-3.80;87.60;;;;;;5024118;28;20025;-64
2023/03/01 01:56:44;;;;;;;42.10;24.67;;;-3.70;87.20;;;;;;5016784;28;20033;-64
2023/03/01 01:59:11;;;;;;;43.17;24.70;;;-3.60;88.20;;;;;;5017602;28;20077;-64
2023/03/01 02:01:36;;;;;;;42.88;25.55;;;-3.50;88.30;;;;;;5022331;28;20026;-64
2023/03/01 02:04:02;;;;;;;41.55;24.52;;;-3.50;90.00;;;;;;5018635;28;20512;-64
2023/03/01 02:06:41;;;;;;;41.28;24.50;;;-3.40;90.00;;;;;;5032234;28;20037;-64
2023/03/01 02:09:14;;;;;;;38.17;23.65;;;-3.40;91.30;;;;;;5039853;28;20025;-64
2023/03/01 02:11:44;;;;;;;43.00;25.05;;;-3.40;91.30;;;;;;5029641;28;20026;-64
2023/03/01 02:14:09;;;;;;;41.13;24.48;;;-3.30;91.10;;;;;;5038831;28;20191;-64
2023/03/01 02:16:41;;;;;;;46.67;25.92;;;-3.10;90.70;;;;;;5034375;28;20422;-64
2023/03/01 02:19:07;;;;;;;42.60;25.42;;;-3.10;92.20;;;;;;5033704;28;20018;-64
2023/03/01 02:21:35;;;;;;;45.80;27.08;;;-2.90;91.70;;;;;;5035085;28;20017;-64
2023/03/01 02:24:14;;;;;;;46.85;27.48;;;-2.80;94.00;;;;;;5031718;28;20037;-65
2023/03/01 02:26:49;;;;;;;44.58;26.58;;;-2.70;94.10;;;;;;5044050;28;20029;-65
2023/03/01 02:29:15;;;;;;;42.67;25.20;;;-2.60;95.30;;;;;;5048154;28;20025;-65
2023/03/01 02:31:44;;;;;;;44.55;26.90;;;-2.50;96.50;;;;;;5047234;28;20113;-65
2023/03/01 02:34:16;;;;;;;42.00;25.67;;;-2.40;95.90;;;;;;5043299;28;20369;-64
2023/03/01 02:36:48;;;;;;;45.08;27.88;;;-2.30;97.40;;;;;;5037703;28;20083;-64
2023/03/01 02:39:25;;;;;;;48.83;27.67;;;-2.20;98.00;;;;;;5035657;28;20108;-64
2023/03/01 02:41:54;;;;;;;43.10;25.83;;;-2.20;98.00;;;;;;5028278;28;20048;-64
2023/03/01 02:44:22;;;;;;;45.90;27.20;;;-2.10;98.00;;;;;;5035237;28;20021;-65
2023/03/01 02:46:51;;;;;;;41.50;25.13;;;-2.00;98.00;;;;;;5039748;28;20026;-64
2023/03/01 02:49:39;;;;;;;45.72;26.10;;;-2.00;98.00;;;;;;5035757;28;20037;-64
2023/03/01 02:52:28;;;;;;;44.08;26.60;;;-1.90;98.00;;;;;;5025877;28;20109;-64
2023/03/01 02:54:59;;;;;;;44.30;25.48;;;-1.80;98.00;;;;;;5037124;28;20036;-65
2023/03/01 02:57:27;;;;;;;41.83;25.75;;;-1.70;98.00;;;;;;5033421;28;20105;-64
2023/03/01 02:59:54;;;;;;;40.42;24.70;;;-1.70;98.00;;;;;;5033574;28;20046;-64
2023/03/01 03:02:35;;;;;;;40.35;24.73;;;-1.70;98.00;;;;;;5023221;28;20512;-64
2023/03/01 03:05:02;;;;;;;47.25;26.35;;;-1.70;98.00;;;;;;5031799;28;20455;-64
2023/03/01 03:07:28;;;;;;;40.63;25.15;;;-1.60;98.00;;;;;;5034939;28;20096;-63
2023/03/01 03:09:53;;;;;;;38.33;23.45;;;-1.70;98.00;;;;;;5035317;28;20037;-63
2023/03/01 03:12:19;;;;;;;39.53;25.25;;;-1.70;98.00;;;;;;5036617;28;20029;-63
2023/03/01 03:14:47;;;;;;;43.35;26.00;;;-1.70;98.00;;;;;;5031259;28;20029;-63
2023/03/01 03:17:13;;;;;;;42.03;24.38;;;-1.70;98.00;;;;;;5041283;28;20037;-63
2023/03/01 03:19:45;;;;;;;40.65;25.42;;;-1.70;98.00;;;;;;5027707;28;20037;-64
2023/03/01 03:22:11;;;;;;;41.53;26.00;;;-1.60;98.00;;;;;;5032916;28;20021;-63
2023/03/01 03:24:37;;;;;;;39.42;25.08;;;-1.70;98.00;;;;;;5030473;28;20080;-65
2023/03/01 03:27:06;;;;;;;40.08;25.42;;;-1.70;98.00;;;;;;5029382;28;20037;-64
2023/03/01 03:29:32;;;;;;;40.97;25.02;;;-1.70;98.00;;;;;;5033530;28;20025;-64
2023/03/01 03:31:58;;;;;;;41.53;24.98;;;-1.70;98.00;;;;;;5035294;28;20041;-64
2023/03/01 03:34:23;;;;;;;44.75;26.73;;;-1.90;98.00;;;;;;5036175;28;20087;-64
2023/03/01 03:36:59;;;;;;;45.20;25.33;;;-1.90;98.00;;;;;;5036925;28;20044;-65
2023/03/01 03:39:28;;;;;;;42.63;24.75;;;-1.90;98.00;;;;;;5031482;28;20110;-64
2023/03/01 03:41:54;;;;;;;45.28;24.75;;;-1.80;98.00;;;;;;5034805;28;20307;-65
2023/03/01 03:44:21;;;;;;;40.03;24.40;;;-1.80;98.00;;;;;;5022350;28;20049;-65
2023/03/01 03:46:46;;;;;;;45.15;26.98;;;-1.70;98.00;;;;;;5022244;28;20036;-64
2023/03/01 03:49:12;;;;;;;38.83;24.40;;;-1.70;98.00;;;;;;5022440;28;20349;-64
2023/03/01 03:51:37;;;;;;;42.88;25.17;;;-1.70;98.00;;;;;;5021650;28;20029;-64
2023/03/01 03:54:03;;;;;;;38.88;23.95;;;-1.70;98.00;;;;;;5024183;28;20163;-64
2023/03/01 03:56:29;;;;;;;41.13;25.42;;;-1.70;98.00;;;;;;5031356;28;20025;-64
2023/03/01 03:58:54;;;;;;;41.63;25.42;;;-1.70;98.00;;;;;;5032981;28;20064;-64
2023/03/01 04:01:20;;;;;;;42.03;25.80;;;-1.70;98.00;;;;;;5034612;28;20025;-64
2023/03/01 04:03:54;;;;;;;40.92;25.42;;;-1.70;98.00;;;;;;5045410;28;20024;-64
2023/03/01 04:06:19;;;;;;;;;;;-1.70;98.00;;;;;;5033552;28;20322;-64
2023/03/01 04:08:45;;;;;;;39.58;24.90;;;-1.80;98.00;;;;;;5019361;28;19917;-64
2023/03/01 04:11:28;;;;;;;41.03;25.00;;;-1.80;98.00;;;;;;5018026;28;20042;-64
2023/03/01 04:13:56;;;;;;;39.40;25.27;;;-1.90;98.00;;;;;;5031685;28;20033;-64
2023/03/01 04:16:23;;;;;;;46.03;26.67;;;-1.90;98.00;;;;;;5034991;28;20030;-64
2023/03/01 04:18:56;;;;;;;42.72;26.02;;;-1.90;98.00;;;;;;5036262;28;20021;-64
2023/03/01 04:21:22;;;;;;;43.67;25.52;;;-1.90;98.00;;;;;;5034669;28;20021;-64
2023/03/01 04:23:47;;;;;;;39.60;25.33;;;-1.90;98.00;;;;;;5033851;28;20296;-64
2023/03/01 04:26:16;;;;;;;42.95;25.85;;;-1.90;98.00;;;;;;5037160;28;20422;-64
2023/03/01 04:28:44;;;;;;;46.33;27.25;;;-2.00;98.00;;;;;;5033097;28;20037;-64
2023/03/01 04:31:13;;;;;;;46.03;28.27;;;-2.00;98.00;;;;;;5031281;28;20033;-64
2023/03/01 04:33:41;;;;;;;44.30;26.65;;;-2.00;98.00;;;;;;5048487;28;20073;-64
2023/03/01 04:36:08;;;;;;;45.17;26.95;;;-2.00;98.00;;;;;;5040682;28;20025;-64
2023/03/01 04:38:34;;;;;;;54.35;31.08;;;-2.00;98.00;;;;;;5043810;28;20322;-64
2023/03/01 04:41:00;;;;;;;60.53;34.80;;;-1.90;98.00;;;;;;5038125;28;20018;-64
2023/03/01 04:43:26;;;;;;;48.03;27.15;;;-1.90;98.00;;;;;;5026436;28;20124;-64
2023/03/01 04:45:51;;;;;;;46.55;28.17;;;-1.90;98.00;;;;;;5021037;28;20044;-65
2023/03/01 04:48:17;;;;;;;45.38;27.33;;;-2.00;98.00;;;;;;5028960;28;20133;-64
2023/03/01 04:50:42;;;;;;;48.10;29.77;;;-2.10;98.00;;;;;;5035005;28;20065;-65
2023/03/01 04:53:08;;;;;;;48.33;27.88;;;-2.20;98.00;;;;;;5037151;28;20045;-64
2023/03/01 04:55:33;;;;;;;46.15;27.55;;;-2.20;98.00;;;;;;5029655;28;20046;-65
2023/03/01 04:57:59;;;;;;;46.92;27.75;;;-2.20;98.00;;;;;;5017385;28;20044;-65
2023/03/01 05:00:24;;;;;;;53.47;30.90;;;-2.20;98.00;;;;;;5015486;28;20025;-64
2023/03/01 05:02:53;;;;;;;55.33;29.20;;;-2.30;98.00;;;;;;5020897;28;20042;-65
2023/03/01 05:05:20;;;;;;;51.30;30.20;;;-2.30;98.00;;;;;;5029243;28;20315;-65
2023/03/01 05:07:48;;;;;;;51.40;29.00;;;-2.30;98.00;;;;;;5036432;28;20029;-64
2023/03/01 05:10:17;;;;;;;54.58;32.58;;;-2.30;98.00;;;;;;5036018;28;20322;-64
2023/03/01 05:12:43;;;;;;;59.75;35.72;;;-2.30;98.00;;;;;;5032974;28;20021;-64
2023/03/01 05:15:09;;;;;;;52.90;30.75;;;-2.30;98.00;;;;;;5033732;28;20030;-65
2023/03/01 05:17:35;;;;;;;51.08;29.42;;;-2.30;98.00;;;;;;5026073;28;20430;-64
2023/03/01 05:20:00;;;;;;;47.47;28.88;;;-2.20;98.00;;;;;;5034459;28;20021;-64
2023/03/01 05:22:26;;;;;;;41.50;25.48;;;-2.20;98.00;;;;;;5027745;28;20061;-65
2023/03/01 05:24:55;;;;;;;47.10;26.33;;;-2.20;98.00;;;;;;5029236;28;20041;-64
2023/03/01 05:27:22;;;;;;;44.83;28.00;;;-2.10;98.00;;;;;;5035645;28;20021;-64
2023/03/01 05:29:47;;;;;;;51.30;30.10;;;-2.10;98.00;;;;;;5026261;28;20021;-65
2023/03/01 05:32:15;;;;;;;51.50;29.15;;;-2.10;98.00;;;;;;5031686;28;20532;-64
2023/03/01 05:34:41;;;;;;;50.40;29.08;;;-2.20;98.00;;;;;;5036006;28;20041;-64
2023/03/01 05:37:07;;;;;;;53.03;29.67;;;-2.10;98.00;;;;;;5034296;28;20033;-65
2023/03/01 05:39:33;;;;;;;42.47;27.50;;;-2.10;98.00;;;;;;5035529;28;20144;-64
2023/03/01 05:42:00;;;;;;;49.42;28.30;;;-2.10;98.00;;;;;;5016838;28;20380;-65
2023/03/01 05:44:27;;;;;;;50.47;27.98;;;-2.10;98.00;;;;;;5015829;28;20450;-64
2023/03/01 05:46:53;;;;;;;45.30;27.52;;;-2.10;98.00;;;;;;5014566;28;20095;-65
2023/03/01 05:49:25;;;;;;;46.55;28.35;;;-2.00;98.00;;;;;;5020422;28;20026;-64
2023/03/01 05:51:55;;;;;;;47.33;28.20;;;-2.00;98.00;;;;;;5034850;28;20108;-64
2023/03/01 05:54:29;;;;;;;43.28;28.20;;;-2.00;98.00;;;;;;5033932;28;20049;-64
2023/03/01 05:56:56;;;;;;;46.95;27.63;;;-2.10;98.00;;;;;;5025505;28;20021;-64
2023/03/01 05:59:21;;;;;;;48.95;27.52;;;-2.10;98.00;;;;;;5036227;28;20422;-64
2023/03/01 06:01:47;;;;;;;45.60;26.85;;;-2.10;98.00;;;;;;5038302;28;20088;-64
2023/03/01 06:04:12;;;;;;;52.00;28.65;;;-2.00;98.00;;;;;;5031128;28;20033;-64
2023/03/01 06:06:38;;;;;;;43.47;27.30;;;-2.10;98.00;;;;;;5032008;28;20117;-63
2023/03/01 06:09:07;;;;;;;43.35;25.55;;;-2.10;98.00;;;;;;5024518;28;20042;-63
2023/03/01 06:11:34;;;;;;;53.67;29.60;;;-2.10;98.00;;;;;;5023151;28;20029;-64
2023/03/01 06:14:03;;;;;;;47.33;29.08;;;-2.10;98.00;;;;;;5018393;28;20121;-67
2023/03/01 06:16:34;;;;;;;45.05;27.17;;;-2.10;98.00;;;;;;5014583;28;20050;-65
2023/03/01 06:19:00;;;;;;;44.60;27.02;;;-2.10;98.00;;;;;;5018162;28;20097;-66
2023/03/01 06:21:25;;;;;;;53.83;30.92;;;-2.10;98.00;;;;;;5023208;28;20101;-65
2023/03/01 06:23:53;;;;;;;47.17;29.30;;;-2.10;98.00;;;;;;5025302;28;20029;-65
2023/03/01 06:26:18;;;;;;;49.38;28.98;;;-2.10;98.00;;;;;;5032836;28;20080;-65
2023/03/01 06:28:45;;;;;;;55.13;32.13;;;-2.10;98.00;;;;;;5022368;28;20033;-65
2023/03/01 06:31:11;;;;;;;50.50;29.85;;;-2.00;98.00;;;;;;5032545;28;20036;-65
2023/03/01 06:33:37;;;;;;;52.58;32.38;;;-2.00;98.00;;;;;;5027794;28;20025;-65
2023/03/01 06:36:03;;;;;;;51.90;29.90;;;-1.90;98.00;;;;;;5027325;28;20422;-65
2023/03/01 06:38:28;;;;;;;48.55;29.17;;;-1.90;98.00;;;;;;5035293;28;20036;-64
2023/03/01 06:40:56;;;;;;;53.28;29.42;;;-1.90;98.00;;;;;;5034210;28;20032;-64
2023/03/01 06:43:25;;;;;;;52.65;29.50;;;-1.80;98.00;;;;;;5033723;28;20037;-64
2023/03/01 06:45:50;;;;;;;49.92;27.67;;;-1.80;98.00;;;;;;5030145;28;20106;-64
2023/03/01 06:48:16;;;;;;;51.28;29.95;;;-1.80;98.00;;;;;;5024942;28;20072;-64
2023/03/01 06:50:45;;;;;;;49.83;30.63;;;-1.70;98.00;;;;;;5024190;28;20051;-64
2023/03/01 06:53:10;;;;;;;49.03;28.83;;;-1.70;98.00;;;;;;5035450;28;20029;-64
2023/03/01 06:55:36;;;;;;;50.92;27.70;;;-1.70;98.00;;;;;;5037286;28;20026;-64
2023/03/01 06:58:03;;;;;;;48.90;29.55;;;-1.60;98.00;;;;;;5025482;28;20041;-64
2023/03/01 07:00:29;;;;;;;52.10;30.00;;;-1.60;98.00;;;;;;5034186;28;20033;-64
2023/03/01 07:02:57;;;;;;;52.05;30.25;;;-1.50;98.00;;;;;;5038194;28;20403;-64
2023/03/01 07:05:23;;;;;;;47.72;28.95;;;-1.50;98.00;;;;;;5038172;28;20068;-64
2023/03/01 07:07:48;;;;;;;48.75;27.67;;;-1.40;98.00;;;;;;5034070;28;20415;-64
2023/03/01 07:10:14;;;;;;;53.67;29.55;;;-1.40;98.00;;;;;;5026067;28;20026;-65
2023/03/01 07:12:41;;;;;;;47.83;27.75;;;-1.30;98.00;;;;;;5031251;28;20108;-65
2023/03/01 07:15:09;;;;;;;45.72;27.55;;;-1.20;98.00;;;;;;5026575;28;20048;-65
2023/03/01 07:17:34;;;;;;;44.67;27.10;;;-1.20;98.00;;;;;;5032608;28;20032;-65
2023/03/01 07:20:00;;;;;;;44.53;27.65;;;-1.10;98.00;;;;;;5033569;28;20026;-64
2023/03/01 07:22:29;;;;;;;50.22;28.95;;;-1.10;98.00;;;;;;5036046;28;20407;-64
2023/03/01 07:24:54;;;;;;;46.13;27.98;;;-1.10;98.00;;;;;;5038454;28;20034;-65
2023/03/01 07:27:20;;;;;;;48.13;27.83;;;-1.20;98.00;;;;;;5036403;28;20044;-64
2023/03/01 07:29:45;;;;;;;49.95;29.08;;;-1.30;98.00;;;;;;5036344;28;20030;-65
2023/03/01 07:32:11;;;;;;;45.25;27.08;;;-1.30;98.00;;;;;;5037079;28;20030;-64
2023/03/01 07:34:37;;;;;;;43.13;27.10;;;-1.30;98.00;;;;;;5038266;28;20029;-65
2023/03/01 07:37:05;;;;;;;49.80;30.00;;;-1.20;98.00;;;;;;5019469;28;20041;-64
2023/03/01 07:39:31;;;;;;;48.97;28.63;;;-1.20;98.00;;;;;;5019385;28;20072;-64
2023/03/01 07:41:56;;;;;;;45.38;27.98;;;-1.30;98.00;;;;;;5018749;28;20104;-64
2023/03/01 07:44:22;;;;;;;51.15;30.80;;;-1.20;98.00;;;;;;5038249;28;20071;-65
2023/03/01 07:46:48;;;;;;;48.97;27.20;;;-1.20;98.00;;;;;;5035942;28;20021;-63
2023/03/01 07:49:13;;;;;;;48.30;30.02;;;-1.10;98.00;;;;;;5023276;28;20034;-64
2023/03/01 07:51:39;;;;;;;48.53;28.40;;;-1.10;98.00;;;;;;5018286;28;20022;-64
2023/03/01 07:54:07;;;;;;;50.30;29.85;;;-1.10;98.00;;;;;;5030084;28;20045;-64
2023/03/01 07:56:33;;;;;;;46.97;28.30;;;-0.90;98.00;;;;;;5035442;28;20093;-64
2023/03/01 07:58:59;;;;;;;49.08;29.13;;;-0.70;98.00;;;;;;5036432;28;20444;-64
2023/03/01 08:01:25;;;;;;;46.17;27.83;;;-0.50;98.00;;;;;;5034281;28;20021;-64
2023/03/01 08:03:50;;;;;;;44.03;27.13;;;-0.30;98.00;;;;;;5017718;28;20121;-64
2023/03/01 08:06:17;;;;;;;45.10;26.92;;;-0.10;98.00;;;;;;5017590;28;20041;-64
2023/03/01 08:08:43;;;;;;;43.53;26.23;;;0.10;98.00;;;;;;5025499;28;20029;-65
2023/03/01 08:11:11;;;;;;;43.40;26.35;;;0.20;97.70;;;;;;5037051;28;20033;-64
2023/03/01 08:13:37;;;;;;;41.33;26.45;;;0.30;97.50;;;;;;5021019;28;20068;-64
2023/03/01 08:16:05;;;;;;;42.10;26.05;;;0.50;96.70;;;;;;5036502;28;20050;-64
2023/03/01 08:18:31;;;;;;;45.80;27.70;;;0.50;96.30;;;;;;5036478;28;20567;-64
2023/03/01 08:21:02;;;;;;;46.75;27.58;;;0.50;96.50;;;;;;5037799;28;20029;-64
2023/03/01 08:23:34;;;;;;;45.30;26.67;;;0.60;96.30;;;;;;5019051;28;20423;-64
2023/03/01 08:26:20;;;;;;;43.47;25.90;;;0.50;96.30;;;;;;5036875;28;20044;-64
2023/03/01 08:28:46;;;;;;;45.22;28.17;;;0.40;96.40;;;;;;5024250;28;20033;-64
2023/03/01 08:31:16;;;;;;;45.40;27.77;;;0.50;96.40;;;;;;5035177;28;20446;-64
2023/03/01 08:33:54;;;;;;;50.30;30.27;;;0.40;96.30;;;;;;5020521;28;20037;-64
2023/03/01 08:36:21;;;;;;;47.65;28.45;;;0.40;96.70;;;;;;5024383;28;20341;-63
2023/03/01 08:38:49;;;;;;;49.88;27.52;;;0.40;96.70;;;;;;5027501;28;20085;-64
2023/03/01 08:41:15;;;;;;;44.47;27.38;;;0.50;96.30;;;;;;5022289;28;20419;-64
2023/03/01 08:43:41;;;;;;;45.03;27.75;;;0.70;96.20;;;;;;5020964;28;20037;-64
2023/03/01 08:46:06;;;;;;;45.60;26.70;;;1.10;96.00;;;;;;5035842;28;20506;-64
2023/03/01 08:48:32;;;;;;;41.72;26.58;;;1.40;94.40;;;;;;5036410;28;20033;-64
2023/03/01 08:51:11;;;;;;;38.78;24.88;;;1.80;93.90;;;;;;5017373;28;20324;-64
2023/03/01 08:53:40;;;;;;;37.10;23.75;;;2.90;91.80;;;;;;5032192;28;20052;-64
2023/03/01 08:56:07;;;;;;;41.08;24.60;;;4.00;88.10;;;;;;5017147;28;20049;-64
2023/03/01 08:58:33;;;;;;;39.55;25.00;;;4.40;85.00;;;;;;5023742;28;20385;-63
2023/03/01 09:00:58;;;;;;;42.88;24.95;;;3.80;85.30;;;;;;5033531;28;20108;-63
2023/03/01 09:03:25;;;;;;;41.33;24.92;;;3.70;86.20;;;;;;5033651;28;20112;-63
2023/03/01 09:05:51;;;;;;;36.90;23.95;;;3.80;86.50;;;;;;5034947;28;20109;-63
2023/03/01 09:08:17;;;;;;;41.00;26.13;;;3.60;86.30;;;;;;5018102;28;20030;-62
2023/03/01 09:10:43;;;;;;;45.50;25.17;;;3.60;86.80;;;;;;5015928;28;20064;-66
2023/03/01 09:13:09;;;;;;;40.00;25.20;;;3.80;86.70;;;;;;5019590;28;20427;-65
2023/03/01 09:15:36;;;;;;;35.58;24.30;;;4.50;85.30;;;;;;5024048;28;20029;-64
2023/03/01 09:18:02;;;;;;;33.95;22.45;;;5.20;83.90;;;;;;5020616;28;20026;-65
2023/03/01 09:20:31;;;;;;;35.05;23.42;;;5.70;81.20;;;;;;5016804;28;20367;-64
2023/03/01 09:22:57;;;;;;;37.30;23.25;;;5.80;79.50;;;;;;5034215;28;20034;-64
2023/03/01 09:25:23;;;;;;;34.47;23.27;;;5.30;79.40;;;;;;5036385;28;20044;-65
2023/03/01 09:27:52;;;;;;;35.42;23.60;;;4.90;82.00;;;;;;5019700;28;20033;-64
2023/03/01 09:30:18;;;;;;;36.30;24.73;;;5.10;80.70;;;;;;5015268;28;20061;-64
2023/03/01 09:32:44;;;;;;;36.58;22.92;;;5.10;80.70;;;;;;5031991;28;20331;-64
2023/03/01 09:35:13;;;;;;;31.17;21.60;;;5.80;79.30;;;;;;5028929;28;20030;-64
2023/03/01 09:37:42;;;;;;;32.83;22.33;;;6.40;78.20;;;;;;5030518;28;20057;-64
2023/03/01 09:40:20;;;;;;;31.02;21.30;;;6.90;76.50;;;;;;5035198;28;20032;-64
2023/03/01 09:43:27;;;;;;;30.60;21.70;;;7.30;75.60;;;;;;5036243;28;20029;-64
2023/03/01 09:46:02;;;;;;;32.95;22.52;;;7.00;75.20;;;;;;5029886;28;20064;-64
2023/03/01 09:48:33;;;;;;;34.70;22.77;;;6.60;75.80;;;;;;5028094;28;20025;-64
2023/03/01 09:51:01;;;;;;;33.10;22.70;;;6.50;76.10;;;;;;5035070;28;20104;-64
2023/03/01 09:53:34;;;;;;;31.60;22.13;;;7.00;75.40;;;;;;5036037;28;20017;-64
2023/03/01 09:56:14;;;;;;;30.63;22.10;;;7.50;75.00;;;;;;5020336;28;20052;-65
2023/03/01 09:58:57;;;;;;;32.03;22.20;;;7.20;74.20;;;;;;5018201;28;20076;-64
2023/03/01 10:01:53;;;;;;;29.98;21.75;;;7.10;75.60;;;;;;5032306;28;20021;-64
2023/03/01 10:04:44;;;;;;;29.90;21.50;;;7.30;74.50;;;;;;5016867;28;20180;-64
2023/03/01 10:07:24;;;;;;;29.70;21.00;;;7.30;73.60;;;;;;5018617;28;20252;-65
2023/03/01 10:09:50;;;;;;;30.48;21.95;;;7.70;73.80;;;;;;5032179;28;20084;-65
2023/03/01 10:12:37;;;;;;;32.17;21.67;;;7.80;74.30;;;;;;5028831;28;20037;-65
2023/03/01 10:15:06;;;;;;;28.50;20.02;;;7.90;72.70;;;;;;5027323;28;20091;-65
2023/03/01 10:17:48;;;;;;;30.95;21.70;;;7.90;72.80;;;;;;5029865;28;20032;-65
2023/03/01 10:20:37;;;;;;;27.33;19.48;;;7.80;73.00;;;;;;5018129;28;20026;-65
2023/03/01 10:23:04;;;;;;;29.77;19.25;;;8.00;73.70;;;;;;5016031;28;20415;-65
2023/03/01 10:25:56;;;;;;;31.17;21.40;;;8.20;72.40;;;;;;5026488;28;20447;-65
2023/03/01 10:28:38;;;;;;;30.90;22.30;;;7.70;73.30;;;;;;5039788;28;20026;-65
2023/03/01 10:31:04;;;;;;;32.25;21.25;;;7.40;73.70;;;;;;5035147;28;20437;-66
2023/03/01 10:33:35;;;;;;;30.80;20.30;;;7.30;74.10;;;;;;5036189;28;20029;-65
2023/03/01 10:36:01;;;;;;;29.65;20.17;;;7.70;74.70;;;;;;5034133;28;20030;-65
2023/03/01 10:38:31;;;;;;;31.73;20.35;;;7.90;74.20;;;;;;5031935;28;20028;-65
2023/03/01 10:40:58;;;;;;;31.30;21.98;;;8.10;74.10;;;;;;5031256;28;20415;-65
2023/03/01 10:43:40;;;;;;;31.85;20.40;;;8.60;73.00;;;;;;5038362;28;20029;-65
2023/03/01 10:46:22;;;;;;;30.88;20.45;;;8.70;72.90;;;;;;5038031;28;20033;-65
2023/03/01 10:49:05;;;;;;;30.17;21.67;;;9.10;72.10;;;;;;5037030;28;20026;-65
2023/03/01 10:51:30;;;;;;;27.65;20.17;;;8.90;70.70;;;;;;5025655;28;20038;-66
2023/03/01 10:53:56;;;;;;;31.45;20.27;;;8.70;73.30;;;;;;5025268;28;20415;-66
2023/03/01 10:56:25;;;;;;;31.10;21.40;;;8.40;72.40;;;;;;5019518;28;20410;-66
2023/03/01 10:58:59;;;;;;;29.98;20.17;;;8.40;72.70;;;;;;5018794;28;20046;-66
2023/03/01 11:01:35;;;;;;;28.05;20.98;;;8.40;73.70;;;;;;5018082;28;20026;-66
2023/03/01 11:04:03;;;;;;;29.50;20.88;;;8.70;72.50;;;;;;5022042;28;20029;-67
2023/03/01 11:06:29;;;;;;;34.80;21.15;;;8.80;72.20;;;;;;5039061;28;20041;-66
2023/03/01 11:08:54;;;;;;;30.27;20.25;;;8.80;72.20;;;;;;5038935;28;20117;-66
2023/03/01 11:11:34;;;;;;;31.52;22.23;;;8.80;71.10;;;;;;5039019;28;20330;-66
2023/03/01 11:14:12;;;;;;;30.92;20.55;;;8.50;72.60;;;;;;5035563;28;20027;-67
2023/03/01 11:16:40;;;;;;;32.65;22.10;;;8.30;72.90;;;;;;5036711;28;20025;-67
2023/03/01 11:19:08;;;;;;;42.47;29.25;;;8.30;73.80;;;;;;5038956;28;20029;-67
2023/03/01 11:21:40;;;;;;;54.17;36.88;;;8.30;72.20;;;;;;5038583;28;20027;-66
2023/03/01 11:24:11;;;;;;;53.17;38.75;;;8.50;73.20;;;;;;5038676;28;20056;-67
2023/03/01 11:26:45;;;;;;;30.13;20.60;;;9.00;72.90;;;;;;5038835;28;20044;-67
2023/03/01 11:29:41;;;;;;;31.23;21.67;;;8.90;70.50;;;;;;5029252;28;20026;-67
2023/03/01 11:32:08;;;;;;;43.97;30.15;;;9.40;70.50;;;;;;5017414;28;20375;-67
2023/03/01 11:34:47;;;;;;;27.83;20.27;;;9.70;69.20;;;;;;5018781;28;20129;-67
2023/03/01 11:37:49;;;;;;;26.58;20.20;;;9.50;70.30;;;;;;5018524;28;20091;-67
2023/03/01 11:40:25;;;;;;;26.35;19.80;;;9.40;69.60;;;;;;5013975;28;20415;-67
2023/03/01 11:43:02;;;;;;;30.70;19.95;;;9.50;70.30;;;;;;5018654;28;20030;-67
2023/03/01 11:45:39;;;;;;;28.25;19.50;;;9.40;70.30;;;;;;5027767;28;20418;-67
2023/03/01 11:48:30;;;;;;;30.88;21.20;;;9.60;69.70;;;;;;5018456;28;20068;-67
2023/03/01 11:51:02;;;;;;;29.00;19.15;;;9.30;69.30;;;;;;5018557;28;20318;-67
2023/03/01 11:54:15;;;;;;;27.83;19.38;;;9.40;70.50;;;;;;5018339;28;20029;-66
2023/03/01 11:56:50;;;;;;;29.73;20.40;;;9.60;68.30;;;;;;5008869;28;20034;-66
2023/03/01 11:59:35;;;;;;;26.95;19.00;;;9.50;70.20;;;;;;5033149;28;20391;-67
2023/03/01 12:02:40;;;;;;;28.08;19.70;;;9.40;69.50;;;;;;5036872;28;20029;-66
2023/03/01 12:05:14;;;;;;;31.35;20.02;;;9.60;70.60;;;;;;5023837;28;20045;-68
2023/03/01 12:07:58;;;;;;;27.55;19.88;;;9.40;69.50;;;;;;5035022;28;20032;-68
2023/03/01 12:10:29;;;;;;;29.57;21.20;;;9.30;71.00;;;;;;5037856;28;20061;-69
2023/03/01 12:13:58;;;;;;;29.08;20.33;;;9.30;72.30;;;;;;5035920;28;20064;-68
2023/03/01 12:17:05;;;;;;;28.15;19.58;;;9.40;69.00;;;;;;4982888;28;20049;-68
2023/03/01 12:19:57;;;;;;;30.90;20.85;;;9.00;69.70;;;;;;5006831;28;20045;-68
2023/03/01 12:22:31;;;;;;;32.30;20.35;;;9.00;71.40;;;;;;5026270;28;20045;-68
2023/03/01 12:25:12;;;;;;;30.45;21.45;;;9.00;72.20;;;;;;5036754;28;20057;-68
2023/03/01 12:27:46;;;;;;;28.75;20.05;;;8.80;71.00;;;;;;5027853;28;20103;-68
2023/03/01 12:30:37;;;;;;;29.23;19.90;;;8.60;72.70;;;;;;5023727;28;20180;-68
2023/03/01 12:33:34;;;;;;;26.38;18.60;;;9.10;72.20;;;;;;5017386;28;20037;-68
2023/03/01 12:36:21;;;;;;;26.05;18.55;;;9.40;70.90;;;;;;5022182;28;20021;-68
2023/03/01 12:39:04;;;;;;;23.52;17.92;;;9.80;69.70;;;;;;5017700;28;20104;-68
2023/03/01 12:41:48;;;;;;;27.23;19.10;;;10.10;69.40;;;;;;5030223;28;20037;-68
2023/03/01 12:44:27;;;;;;;27.85;18.75;;;10.00;69.10;;;;;;5021423;28;20026;-67
2023/03/01 12:47:02;;;;;;;27.35;18.48;;;9.80;69.00;;;;;;5019014;28;20037;-67